ハバロフスク の空港の天気 - METARとTAF

ハバロフスク空港 ( UHHH / KHV ) - ロシア ハバロフスク
飛行場実況気象(Metar)
観測時間04/25 16:30 VLAT (04/25 06:30 UTC)
風向・風速南西 8m/s 瞬間風速13m/s
視程10km以上
天気現象
なし
気温23℃
湿度12%
気圧1005hPa
METARUHHH 250630Z 23008G13MPS CAVOK 23/M08 Q1005 R23L/090060 NOSIG RMK QFE747/0997
過去の天気等 Google飛行場航空写真 Wunderground天気予報

過去48時間のMETAR

飛行場予報(TAF)
発表時間: 4/25 14:57 VLAT (4/25 04:57 UTC)
予報対象時間: 25日16時 VLAT ~ 26日22時 VLAT
風向・風速西南西 7m/s
視程10km以上
なし
25日16時 VLAT ~ 26日4時 VLAT に一時的に
風向・風速西 7m/s 瞬間風速 12m/s
TAF UHHH 250457Z 2506/2612 25007MPS CAVOK
TEMPO 2506/2518 26007G12MPS